• Join FlightAware (Why Join?)
  • Login
  • US Flag 
08:52PM EST


 

Airport Tracker/Info


-or-


 

Live Flight TrackerFlight Track Log ✈ ASQ5433 ✈ 12-May-2013 ✈ KDFW - KCVG

Flight Track Log - Related Links

Times and Time Zones

All times are in EDT time to prevent confusion due to time zone crossing. See the ASQ5433 flight status page for this flight to view local times or setup timezone preferences in your user account.

Time Position Orientation Groundspeed Altitude Reporting Facility
EDT Latitude Longitude Course Direction KTS MPH feet Rate Location/Type
01:13PM 32.8833 -97.0333 157° South 159 183 1,500  Level Dallas / Fort Worth TRACON
01:14PM 32.8167 -97.0000 157° South 229 264 4,000 2,100 Climbing Dallas / Fort Worth TRACON
01:15PM 32.7667 -96.9500 140° Southeast 254 292 6,400 2,460 Climbing Dallas / Fort Worth TRACON
01:16PM 32.7667 -96.8500 90° East 288 331 9,000 1,860 Climbing Dallas / Fort Worth TRACON
01:18PM 32.8272 -96.6917 65° Northeast 325 374 11,600 1,500 Climbing Fort Worth Center
01:19PM 32.8725 -96.5800 64° Northeast 354 407 13,200 1,500 Climbing Fort Worth Center
01:20PM 32.9175 -96.4631 65° Northeast 373 429 14,600 1,500 Climbing Fort Worth Center
01:21PM 32.9667 -96.3389 65° Northeast 399 459 16,200 1,500 Climbing Fort Worth Center
01:22PM 32.9883 -96.2047 79° East 409 471 17,600 1,320 Climbing Fort Worth Center
01:23PM 33.0078 -96.0608 81° East 429 494 18,900 1,320 Climbing Fort Worth Center
01:24PM 33.0269 -95.9194 81° East 429 494 20,300 1,500 Climbing Fort Worth Center
01:25PM 33.0481 -95.7753 80° East 429 494 21,900 1,500 Climbing Fort Worth Center
01:26PM 33.0669 -95.6286 81° East 434 499 23,300 1,500 Climbing Fort Worth Center
01:27PM 33.0964 -95.4842 76° East 440 506 24,900 1,440 Climbing Fort Worth Center
01:28PM 33.1378 -95.3419 71° East 440 506 26,200 1,140 Climbing Fort Worth Center
01:29PM 33.1833 -95.1969 69° East 452 520 27,200 960 Climbing Fort Worth Center
01:30PM 33.2286 -95.0492 70° East 457 526 28,200 960 Climbing Fort Worth Center
01:31PM 33.2739 -94.8989 70° East 469 540 29,200 960 Climbing Fort Worth Center
01:32PM 33.3186 -94.7436 71° East 481 554 30,200 960 Climbing Fort Worth Center
01:33PM 33.3672 -94.5881 69° East 492 566 31,200 960 Climbing Fort Worth Center
01:34PM 33.4136 -94.4272 71° East 497 572 32,200 960 Climbing Fort Worth Center
01:35PM 33.4600 -94.2664 71° East 503 579 33,200 780 Climbing Fort Worth Center
01:36PM 33.5100 -94.1050 70° East 508 585 33,800 540 Climbing Fort Worth Center
01:37PM 33.5644 -93.9561 66° East 514 592 34,300 480 Climbing Fort Worth Center
01:38PM 33.6244 -93.7939 66° East 519 597 34,800 300 Climbing Fort Worth Center
01:39PM 33.6906 -93.6289 64° Northeast 525 604 35,000 120 Climbing Fort Worth Center
01:39PM 33.7233 -93.5342 67° East 554 638 35,000 240 Level Memphis Center
01:40PM 33.7903 -93.3639 65° Northeast 567 652 35,400 600 Climbing Memphis Center
01:41PM 33.8547 -93.1961 65° Northeast 567 652 36,200 720 Climbing Memphis Center
01:42PM 33.9208 -93.0306 64° Northeast 554 638 36,900 360 Climbing Memphis Center
01:43PM 33.9828 -92.8597 66° East 549 632 37,000  Climbing Memphis Center
01:44PM 34.0489 -92.6886 65° Northeast 554 638 37,000  Level Memphis Center
01:45PM 34.1292 -92.5100 61° Northeast 554 638 37,000  Level Memphis Center
01:46PM 34.2356 -92.3847 44° Northeast 547 629 37,000  Level Memphis Center
01:47PM 34.3442 -92.2564 44° Northeast 547 629 37,000  Level Memphis Center
01:48PM 34.4522 -92.1303 44° Northeast 534 615 37,000  Level Memphis Center
01:49PM 34.5583 -92.0064 44° Northeast 529 609 37,000  Level Memphis Center
01:50PM 34.6664 -91.8797 44° Northeast 529 609 37,000  Level Memphis Center
01:51PM 34.7722 -91.7503 45° Northeast 536 617 37,000  Level Memphis Center
01:52PM 34.8800 -91.6253 44° Northeast 536 617 37,000  Level Memphis Center
01:53PM 34.9833 -91.4978 45° Northeast 531 611 37,000  Level Memphis Center
01:54PM 35.0908 -91.3772 43° Northeast 531 611 37,000  Level Memphis Center
01:55PM 35.1919 -91.2464 47° Northeast 524 603 37,000  Level Memphis Center
01:56PM 35.2972 -91.1228 44° Northeast 519 597 37,000  Level Memphis Center
01:57PM 35.3894 -91.0117 44° Northeast 512 589 37,000  Level Memphis Center
01:58PM 35.4944 -90.8875 44° Northeast 512 589 37,000  Level Memphis Center
01:59PM 35.5969 -90.7606 45° Northeast 512 589 37,000  Level Memphis Center
02:00PM 35.7039 -90.6228 46° Northeast 510 587 37,000  Level Memphis Center
02:01PM 35.8083 -90.4953 45° Northeast 505 581 37,000  Level Memphis Center
02:02PM 35.9106 -90.3672 45° Northeast 505 581 37,000  Level Memphis Center
02:03PM 36.0147 -90.2389 45° Northeast 511 588 37,000  Level Memphis Center
02:04PM 36.1167 -90.1128 45° Northeast 511 588 37,000  Level Memphis Center
02:05PM 36.2206 -89.9839 45° Northeast 511 588 37,000  Level Memphis Center
02:06PM 36.3244 -89.8572 44° Northeast 511 588 37,000 -180 Level Memphis Center
02:07PM 36.4258 -89.7278 46° Northeast 511 588 36,700 -540 Descending Memphis Center
02:08PM 36.5253 -89.6003 46° Northeast 511 588 36,000 -660 Descending Memphis Center
02:09PM 36.6286 -89.4728 45° Northeast 511 588 35,400 -540 Descending Memphis Center
02:10PM 36.7278 -89.3447 46° Northeast 511 588 35,000 -240 Descending Memphis Center
02:11PM 36.8286 -89.2139 46° Northeast 511 588 35,000  Level Memphis Center
02:12PM 36.9172 -89.1011 45° Northeast 511 588 35,000  Level Memphis Center
02:13PM 37.0178 -88.9694 46° Northeast 511 588 35,000  Level Memphis Center
02:14PM 37.1183 -88.8428 45° Northeast 511 588 35,000  Level Memphis Center
02:15PM 37.2147 -88.7186 46° Northeast 506 582 35,000 -600 Level Memphis Center
02:16PM 37.3131 -88.5861 47° Northeast 506 582 33,800 -1,140 Descending Memphis Center
02:18PM 37.5056 -88.3264 47° Northeast 498 573 31,600 -960 Descending Indianapolis Center
02:19PM 37.6008 -88.1997 46° Northeast 504 580 31,000 -300 Descending Indianapolis Center
02:20PM 37.6953 -88.0672 48° Northeast 503 579 31,000  Level Indianapolis Center
02:22PM 37.7608 -87.9008 63° Northeast 525 604 31,000  Level Indianapolis Center
02:23PM 37.8242 -87.7325 64° Northeast 527 606 31,000  Level Indianapolis Center
02:24PM 37.8875 -87.5631 65° Northeast 531 611 31,000  Level Indianapolis Center
02:25PM 37.9644 -87.3578 65° Northeast 537 618 31,000 -360 Level Indianapolis Center
02:26PM 38.0289 -87.1853 65° Northeast 543 625 30,300 -1,080 Descending Indianapolis Center
02:27PM 38.0922 -87.0131 65° Northeast 546 628 28,800 -1,500 Descending Indianapolis Center
02:28PM 38.1533 -86.8467 65° Northeast 532 612 27,300 -1,500 Descending Indianapolis Center
02:29PM 38.2133 -86.6819 65° Northeast 521 600 25,800 -1,500 Descending Indianapolis Center
02:30PM 38.2739 -86.5178 65° Northeast 517 595 24,300 -1,620 Descending Indianapolis Center
02:31PM 38.3447 -86.3231 65° Northeast 505 581 22,500 -1,920 Descending Indianapolis Center
02:32PM 38.4008 -86.1692 65° Northeast 483 556 20,400 -2,100 Descending Indianapolis Center
02:33PM 38.4539 -86.0172 66° East 470 541 18,200 -2,040 Descending Indianapolis Center
02:34PM 38.5058 -85.8725 65° Northeast 452 520 16,300 -1,980 Descending Indianapolis Center
02:35PM 38.5550 -85.7353 65° Northeast 428 493 14,200 -2,040 Descending Indianapolis Center
02:36PM 38.6028 -85.6042 65° Northeast 410 472 12,100 -1,560 Descending Indianapolis Center
02:37PM 38.6636 -85.4758 59° Northeast 392 451 11,000 -540 Descending Indianapolis Center
02:38PM 38.6856 -85.3403 78° East 407 468 11,000 -180 Level Indianapolis Center
02:39PM 38.6881 -85.2100 89° East 364 419 10,700 -780 Descending Indianapolis Center
02:40PM 38.6908 -85.1011 88° East 312 359 9,500 -1,380 Descending Indianapolis Center
02:41PM 38.6922 -84.9750 89° East 298 343 7,900 -1,560 Descending Indianapolis Center
02:42PM 38.7058 -84.8789 80° East 289 333 6,400 -1,080 Descending Indianapolis Center
02:43PM 38.7403 -84.8050 59° Northeast 281 323 5,700 -720 Descending Indianapolis Center
02:46PM 38.8667 -84.6667 40° Northeast 210 242 4,100 -780 Descending Cincinnati TRACON
02:47PM 38.9333 -84.6667 360° North 184 212 3,100 -900 Descending Cincinnati TRACON
02:47PM 38.9667 -84.6667 360° North 176 203 2,400 -840 Descending Cincinnati TRACON
02:48PM 39.0000 -84.6667 360° North 127 146 1,600 -840 Descending Cincinnati TRACON
02:50PM 39.0333 -84.6667 38° Northeast  Level FlightAware Approximate
02:57PM 39.0488 -84.6678 38° Northeast  Level Estimated
02:58PM 39.0488 -84.6678 38° Northeast  Level Estimated